Página principal
METAR-TAF:

METAR-TAF

Aeroportos :

Ulianovsk, Rússia

latitude: 54-21N, longitude: 048-23E, altura: 77 m

Observação actual do tempo

O boletim foi feito há 1 hora e 8 minutos, às 02:00 UTC
Vento 2 kt de oes-noroeste
Temperatura -6°C
Humidade 79%
Pressão 1029 hPa
Visibilidade: 8000 m

METAR: UWLW 190200Z 29001MPS 8000 NSC M06/M09 Q1029 R02/CLRD60 NOSIG RMK QFE765

Hora: 06:08 (03:08 UTC)

Previsão

O boletim foi feito há 1 hora e 23 minutos, às 01:45 UTC
Previsão válida de 19 às 03 UTC a 20 às 03 UTC
Vento 6 kt de nor-noroeste
Visibilidade: 8000 m
Nuvens dispersasa uma altura de 3300 ft
Temporariamente
de 19 às 03 UTC a 19 às 16 UTC
Vento 6 kt de norte com rajadas de 16 kt

TAF: UWLW 190145Z 1903/2003 33003MPS 8000 SCT033 TEMPO 1903/1916 01003G08MPS

Observações e previsões do tempo de mais de 4000 aeroportos (mensagens METAR e TAF).

As estações disponíveis são os pontos amarelos e vermelhos sobre o mapa.

Mova o rato sobre o mapa para ver o nome da estação.

Depois clique no ponto para visualizar as observações e previsões meteorológicas.

Para alterar o mapa : clique nos botões verdes com uma cruz preta para aumentar o zoom; no botão verde com uma pitada de zoom; ou nas setas verdes para mapas adjacentes.


METAR-TAF: